createdAt,value
2023-01-17T00:00:36.433Z,93987.00
2023-01-17T00:05:58.451Z,93993.00
2023-01-17T00:10:59.436Z,94000.00
2023-01-17T00:16:00.236Z,93996.00
2023-01-17T00:21:19.670Z,94010.00
2023-01-17T00:26:20.531Z,94008.00
2023-01-17T00:31:21.702Z,94017.00
2023-01-17T00:36:22.491Z,94025.00
2023-01-17T00:41:23.352Z,94032.00
2023-01-17T00:46:42.966Z,94051.00
2023-01-17T00:52:02.563Z,94067.00
2023-01-17T00:57:22.897Z,94074.00
2023-01-17T01:02:43.685Z,94094.00
2023-01-17T01:08:03.573Z,94109.00
2023-01-17T01:13:22.913Z,94119.00
2023-01-17T01:18:42.122Z,94121.00
2023-01-17T01:24:01.395Z,94130.00
2023-01-17T01:29:21.500Z,94136.00
2023-01-17T01:34:22.372Z,94146.00
2023-01-17T01:39:23.121Z,94162.00
2023-01-17T01:48:03.214Z,94158.00
2023-01-17T01:53:06.152Z,94172.00
2023-01-17T01:58:21.632Z,94188.00
2023-01-17T02:03:28.513Z,94192.00
2023-01-17T02:08:30.525Z,94196.00
2023-01-17T02:13:31.473Z,94197.00
2023-01-17T02:19:24.999Z,94206.00
2023-01-17T02:24:54.035Z,94213.00
2023-01-17T02:30:27.038Z,94206.00
2023-01-17T02:37:28.228Z,94213.00
2023-01-17T02:42:35.291Z,94211.00
2023-01-17T02:47:36.161Z,94218.00
2023-01-17T02:54:29.435Z,94214.00
2023-01-17T02:59:43.651Z,94212.00
2023-01-17T03:04:58.086Z,94212.00
2023-01-17T03:10:03.956Z,94218.00
2023-01-17T03:15:11.208Z,94215.00
2023-01-17T03:20:12.174Z,94220.00
2023-01-17T03:25:13.063Z,94219.00
2023-01-17T03:30:15.247Z,94218.00
2023-01-17T03:35:16.139Z,94224.00
2023-01-17T03:40:16.944Z,94218.00
2023-01-17T03:45:18.263Z,94218.00
2023-01-17T03:50:19.091Z,94232.00
2023-01-17T03:55:19.946Z,94228.00
2023-01-17T04:00:20.879Z,94236.00
2023-01-17T04:05:21.589Z,94231.00
2023-01-17T04:10:22.356Z,94234.00
2023-01-17T04:15:23.085Z,94243.00
2023-01-17T04:20:36.529Z,94242.00
2023-01-17T04:25:37.787Z,94247.00
2023-01-17T04:30:38.859Z,94232.00
2023-01-17T04:35:39.600Z,94230.00
2023-01-17T04:40:40.369Z,94230.00
2023-01-17T04:45:41.115Z,94241.00
2023-01-17T04:50:42.072Z,94249.00
2023-01-17T04:55:46.194Z,94251.00
2023-01-17T05:00:50.066Z,94256.00
2023-01-17T05:05:50.882Z,94251.00
2023-01-17T05:10:52.109Z,94260.00
2023-01-17T05:15:53.105Z,94270.00
2023-01-17T05:20:53.899Z,94261.00
2023-01-17T05:25:55.272Z,94261.00
2023-01-17T05:30:56.122Z,94259.00
2023-01-17T05:35:57.559Z,94255.00
2023-01-17T05:41:00.159Z,94256.00
2023-01-17T05:46:01.224Z,94263.00
2023-01-17T05:51:02.074Z,94276.00
2023-01-17T05:56:03.005Z,94271.00
2023-01-17T06:01:03.933Z,94281.00
2023-01-17T06:06:04.917Z,94275.00
2023-01-17T06:11:05.760Z,94278.00
2023-01-17T06:16:07.477Z,94281.00
2023-01-17T06:21:08.297Z,94271.00
2023-01-17T06:26:09.699Z,94274.00
2023-01-17T06:31:10.503Z,94282.00
2023-01-17T06:36:11.275Z,94271.00
2023-01-17T06:41:12.025Z,94289.00
2023-01-17T06:46:12.812Z,94297.00
2023-01-17T06:51:14.261Z,94303.00
2023-01-17T06:56:15.468Z,94301.00
2023-01-17T07:01:17.583Z,94296.00
2023-01-17T07:06:18.872Z,94298.00
2023-01-17T07:11:19.604Z,94294.00
2023-01-17T07:16:20.463Z,94305.00
2023-01-17T07:21:21.842Z,94299.00
2023-01-17T07:26:22.781Z,94301.00
2023-01-17T07:31:23.769Z,94289.00
2023-01-17T07:36:24.547Z,94284.00
2023-01-17T07:41:25.376Z,94286.00
2023-01-17T07:46:26.888Z,94276.00
2023-01-17T07:51:27.963Z,94276.00
2023-01-17T07:56:28.783Z,94272.00
2023-01-17T08:01:29.751Z,94268.00
2023-01-17T08:06:30.731Z,94263.00
2023-01-17T08:11:31.468Z,94252.00
2023-01-17T08:16:32.297Z,94256.00
2023-01-17T08:21:33.136Z,94261.00
2023-01-17T08:26:33.963Z,94260.00
2023-01-17T08:31:35.242Z,94266.00
2023-01-17T08:36:36.140Z,94267.00
2023-01-17T08:41:36.936Z,94264.00
2023-01-17T08:46:39.002Z,94261.00
2023-01-17T08:51:39.901Z,94250.00
2023-01-17T08:56:46.091Z,94256.00
2023-01-17T09:01:47.050Z,94262.00
2023-01-17T09:06:48.049Z,94257.00
2023-01-17T09:11:48.794Z,94245.00
2023-01-17T09:16:50.187Z,94255.00
2023-01-17T09:21:51.043Z,94257.00
2023-01-17T09:26:52.096Z,94260.00
2023-01-17T09:31:53.162Z,94257.00
2023-01-17T09:36:56.577Z,94260.00
2023-01-17T09:42:29.246Z,94267.00
2023-01-17T09:47:52.344Z,94270.00
2023-01-17T09:53:05.075Z,94276.00
2023-01-17T09:58:14.172Z,94272.00
2023-01-17T10:03:39.502Z,94273.00
2023-01-17T10:09:07.290Z,94272.00
2023-01-17T10:18:30.765Z,94273.00
2023-01-17T10:25:15.520Z,94273.00
2023-01-17T10:30:23.182Z,94279.00
2023-01-17T10:35:32.564Z,94289.00
2023-01-17T10:40:43.953Z,94275.00
2023-01-17T10:45:52.372Z,94272.00
2023-01-17T10:51:10.881Z,94277.00
2023-01-17T10:56:16.491Z,94273.00
2023-01-17T11:01:20.088Z,94276.00
2023-01-17T11:06:25.481Z,94267.00
2023-01-17T11:11:32.177Z,94266.00
2023-01-17T11:16:33.068Z,94263.00
2023-01-17T11:21:38.647Z,94251.00
2023-01-17T11:26:46.735Z,94258.00
2023-01-17T11:31:47.678Z,94254.00
2023-01-17T11:36:49.378Z,94248.00
2023-01-17T11:41:51.428Z,94236.00
2023-01-17T11:50:25.063Z,94222.00
2023-01-17T11:55:25.877Z,94210.00
2023-01-17T12:00:39.410Z,94214.00
2023-01-17T12:06:10.983Z,94200.00
2023-01-17T12:13:06.435Z,94199.00
2023-01-17T12:19:48.120Z,94185.00
2023-01-17T12:38:33.380Z,94179.00
2023-01-17T12:43:39.417Z,94158.00
2023-01-17T12:48:41.296Z,94145.00
2023-01-17T12:54:06.291Z,94154.00
2023-01-17T13:01:02.123Z,94150.00
2023-01-17T13:06:06.406Z,94145.00
2023-01-17T13:11:45.210Z,94138.00
2023-01-17T13:16:57.968Z,94139.00
2023-01-17T13:22:00.181Z,94139.00
2023-01-17T13:27:18.032Z,94140.00
2023-01-17T13:33:14.523Z,94131.00
2023-01-17T13:39:29.224Z,94134.00
2023-01-17T13:44:31.155Z,94128.00
2023-01-17T13:49:48.007Z,94134.00
2023-01-17T13:55:00.826Z,94133.00
2023-01-17T14:01:53.709Z,94133.00
2023-01-17T14:06:58.672Z,94134.00
2023-01-17T14:13:00.761Z,94128.00
2023-01-17T14:18:03.884Z,94122.00
2023-01-17T14:24:15.149Z,94121.00
2023-01-17T14:29:45.652Z,94113.00
2023-01-17T14:34:50.076Z,94117.00
2023-01-17T14:39:51.111Z,94123.00
2023-01-17T14:45:03.695Z,94114.00
2023-01-17T14:50:39.932Z,94115.00
2023-01-17T14:55:56.805Z,94113.00
2023-01-17T15:01:01.319Z,94113.00
2023-01-17T15:06:11.557Z,94123.00
2023-01-17T15:11:25.563Z,94142.00
2023-01-17T15:16:34.918Z,94144.00
2023-01-17T15:21:39.787Z,94150.00
2023-01-17T15:26:42.629Z,94144.00
2023-01-17T15:31:49.612Z,94151.00
2023-01-17T15:36:51.557Z,94147.00
2023-01-17T15:41:54.285Z,94145.00
2023-01-17T15:46:55.796Z,94149.00
2023-01-17T15:52:15.422Z,94137.00
2023-01-17T15:57:36.708Z,94131.00
2023-01-17T16:02:54.463Z,94144.00
2023-01-17T16:08:55.339Z,94141.00
2023-01-17T16:13:56.052Z,94148.00
2023-01-17T16:18:59.853Z,94147.00
2023-01-17T16:24:02.024Z,94151.00
2023-01-17T16:29:02.872Z,94154.00
2023-01-17T16:34:10.200Z,94156.00
2023-01-17T16:39:14.663Z,94155.00
2023-01-17T16:44:16.006Z,94157.00
2023-01-17T16:49:18.221Z,94153.00
2023-01-17T16:54:19.009Z,94168.00
2023-01-17T16:59:20.025Z,94164.00
2023-01-17T17:04:20.791Z,94153.00
2023-01-17T17:09:21.648Z,94150.00
2023-01-17T17:14:22.418Z,94157.00
2023-01-17T17:19:23.264Z,94165.00
2023-01-17T17:24:24.335Z,94155.00
2023-01-17T17:29:25.234Z,94162.00
2023-01-17T17:34:27.424Z,94158.00
2023-01-17T17:39:28.455Z,94155.00
2023-01-17T17:44:30.045Z,94155.00
2023-01-17T17:49:30.807Z,94154.00
2023-01-17T17:54:32.180Z,94156.00
2023-01-17T17:59:33.166Z,94169.00
2023-01-17T18:04:33.973Z,94169.00
2023-01-17T18:09:34.742Z,94170.00
2023-01-17T18:14:35.512Z,94176.00
2023-01-17T18:19:37.221Z,94177.00
2023-01-17T18:24:37.963Z,94190.00
2023-01-17T18:29:39.167Z,94188.00
2023-01-17T18:34:41.629Z,94199.00
2023-01-17T18:39:43.010Z,94207.00
2023-01-17T18:44:43.755Z,94205.00
2023-01-17T18:49:44.488Z,94196.00
2023-01-17T18:54:45.600Z,94212.00
2023-01-17T18:59:46.517Z,94225.00
2023-01-17T19:04:47.336Z,94227.00
2023-01-17T19:09:48.088Z,94229.00
2023-01-17T19:14:48.828Z,94245.00
2023-01-17T19:19:49.653Z,94243.00
2023-01-17T19:24:52.290Z,94243.00
2023-01-17T19:29:53.241Z,94248.00
2023-01-17T19:34:54.003Z,94263.00
2023-01-17T19:39:54.811Z,94265.00
2023-01-17T19:44:55.566Z,94261.00
2023-01-17T19:49:56.310Z,94270.00
2023-01-17T19:54:57.189Z,94271.00
2023-01-17T19:59:58.077Z,94265.00
2023-01-17T20:04:59.135Z,94272.00
2023-01-17T20:09:59.936Z,94281.00
2023-01-17T20:15:01.060Z,94277.00
2023-01-17T20:20:05.356Z,94278.00
2023-01-17T20:25:07.744Z,94274.00
2023-01-17T20:30:19.594Z,94277.00
2023-01-17T20:35:21.166Z,94281.00
2023-01-17T20:40:21.900Z,94289.00
2023-01-17T20:45:22.664Z,94288.00
2023-01-17T20:50:23.363Z,94285.00
2023-01-17T20:55:24.444Z,94283.00
2023-01-17T21:00:25.269Z,94286.00
2023-01-17T21:05:27.109Z,94286.00
2023-01-17T21:10:28.477Z,94292.00
2023-01-17T21:15:29.255Z,94287.00
2023-01-17T21:20:33.855Z,94296.00
2023-01-17T21:25:37.912Z,94292.00
2023-01-17T21:30:38.776Z,94304.00
2023-01-17T21:35:39.571Z,94312.00
2023-01-17T21:40:41.553Z,94301.00
2023-01-17T21:45:42.288Z,94306.00
2023-01-17T21:50:44.341Z,94300.00
2023-01-17T21:56:03.916Z,94299.00
2023-01-17T22:01:14.888Z,94296.00
2023-01-17T22:06:16.611Z,94304.00
2023-01-17T22:11:20.466Z,94307.00
2023-01-17T22:16:23.424Z,94302.00
2023-01-17T22:21:27.439Z,94308.00
2023-01-17T22:26:30.195Z,94309.00
2023-01-17T22:31:31.116Z,94306.00
2023-01-17T22:36:33.059Z,94302.00
2023-01-17T22:41:36.466Z,94307.00
2023-01-17T22:46:38.476Z,94303.00
2023-01-17T22:51:39.405Z,94304.00
2023-01-17T22:56:40.554Z,94300.00
2023-01-17T23:01:41.401Z,94301.00
2023-01-17T23:06:42.708Z,94299.00
2023-01-17T23:11:49.355Z,94305.00
2023-01-17T23:17:21.979Z,94304.00
2023-01-17T23:22:26.074Z,94303.00
2023-01-17T23:27:57.384Z,94312.00
2023-01-17T23:33:00.604Z,94308.00
2023-01-17T23:38:20.266Z,94309.00
2023-01-17T23:43:23.896Z,94309.00
2023-01-17T23:48:27.995Z,94304.00
2023-01-17T23:53:28.725Z,94301.00
2023-01-17T23:58:29.495Z,94310.00
